Time;durP1;ratioP1;P1;durP2;ratioP2;P2;SDS_P1;SDS_P2;PMS_P1;PMS_P2;Temp;Humidity;BMP_temperature;BMP_pressure;BME280_temperature;BME280_humidity;BME280_pressure;Samples;Min_cycle;Max_cycle;Signal;HPM_P1;HPM_P2
2022/10/03 00:02:30;;;;;;;23.63;5.80;;;;;;;;;;5075505;28;20432;-67
2022/10/03 00:05:10;;;;;;;12.85;4.47;;;;;;;;;;5075813;28;20452;-65
2022/10/03 00:07:52;;;;;;;8.77;4.23;;;;;;;;;;5075678;28;20192;-66
2022/10/03 00:10:23;;;;;;;13.45;4.38;;;;;;;;;;5075335;28;20430;-66
2022/10/03 00:13:00;;;;;;;12.10;5.15;;;;;;;;;;5075277;28;20186;-66
2022/10/03 00:15:29;;;;;;;18.60;4.63;;;;;;;;;;5075753;28;20654;-66
2022/10/03 00:18:02;;;;;;;10.50;4.90;;;;;;;;;;5074515;28;20249;-66
2022/10/03 00:20:36;;;;;;;20.03;5.00;;;;;;;;;;5075152;28;20206;-66
2022/10/03 00:23:09;;;;;;;11.00;4.90;;;;;;;;;;5075161;28;20432;-66
2022/10/03 00:25:41;;;;;;;13.38;4.43;;;;;;;;;;5075591;28;20190;-66
2022/10/03 00:28:13;;;;;;;18.13;3.90;;;;;;;;;;5074649;28;20190;-66
2022/10/03 00:30:52;;;;;;;12.38;5.20;;;;;;;;;;5074604;28;20432;-66
2022/10/03 00:33:25;;;;;;;10.73;4.20;;;;;;;;;;5075075;28;20188;-66
2022/10/03 00:35:58;;;;;;;11.23;6.65;;;;;;;;;;5074958;28;20182;-66
2022/10/03 00:38:36;;;;;;;14.88;5.07;;;;;;;;;;5075220;28;20194;-66
2022/10/03 00:41:27;;;;;;;12.27;5.03;;;;;;;;;;5074707;28;20212;-66
2022/10/03 00:44:22;;;;;;;11.20;4.80;;;;;;;;;;5059334;28;20194;-66
2022/10/03 00:47:13;;;;;;;16.75;4.50;;;;;;;;;;5075068;28;20195;-66
2022/10/03 00:49:57;;;;;;;13.43;5.63;;;;;;;;;;5059265;28;20203;-68
2022/10/03 00:52:30;;;;;;;7.87;4.83;;;;;;;;;;5074609;28;20189;-66
2022/10/03 00:55:06;;;;;;;23.10;5.43;;;;;;;;;;5074405;28;20443;-66
2022/10/03 00:57:42;;;;;;;11.85;4.60;;;;;;;;;;5074146;28;20178;-66
2022/10/03 01:00:18;;;;;;;14.93;5.32;;;;;;;;;;5073832;28;20679;-66
2022/10/03 01:02:50;;;;;;;9.32;5.53;;;;;;;;;;5074012;28;20315;-66
2022/10/03 01:05:24;;;;;;;25.77;5.77;;;;;;;;;;5074234;28;20217;-66
2022/10/03 01:08:06;;;;;;;14.93;4.93;;;;;;;;;;5074328;28;20424;-66
2022/10/03 01:10:39;;;;;;;11.13;4.63;;;;;;;;;;5061597;28;20457;-66
2022/10/03 01:13:18;;;;;;;13.90;5.23;;;;;;;;;;5073806;28;20428;-66
2022/10/03 01:15:49;;;;;;;13.23;5.50;;;;;;;;;;5074446;28;20432;-66
2022/10/03 01:18:20;;;;;;;10.70;4.90;;;;;;;;;;5073636;28;20222;-65
2022/10/03 01:20:53;;;;;;;15.23;4.30;;;;;;;;;;5073850;28;20468;-66
2022/10/03 01:23:44;;;;;;;13.52;5.18;;;;;;;;;;5073903;28;20182;-66
2022/10/03 01:26:20;;;;;;;7.00;4.53;;;;;;;;;;5074277;28;20220;-66
2022/10/03 01:31:41;;;;;;;18.42;4.90;;;;;;;;;;5073743;28;20181;-66
2022/10/03 01:34:11;;;;;;;13.88;4.95;;;;;;;;;;5073392;28;20182;-67
2022/10/03 01:36:40;;;;;;;18.60;5.70;;;;;;;;;;5073940;28;20182;-66
2022/10/03 01:39:11;;;;;;;19.93;5.40;;;;;;;;;;5073310;28;20652;-66
2022/10/03 01:41:49;;;;;;;15.93;4.83;;;;;;;;;;5073697;28;20464;-66
2022/10/03 01:44:23;;;;;;;25.35;5.93;;;;;;;;;;5073285;28;20429;-67
2022/10/03 01:46:53;;;;;;;15.80;4.93;;;;;;;;;;5073400;28;20198;-66
2022/10/03 01:49:22;;;;;;;19.55;4.70;;;;;;;;;;5073081;28;20631;-66
2022/10/03 01:51:52;;;;;;;11.45;5.63;;;;;;;;;;5073123;28;20202;-66
2022/10/03 01:54:22;;;;;;;12.88;5.65;;;;;;;;;;5073368;28;20198;-66
2022/10/03 01:56:53;;;;;;;20.00;6.97;;;;;;;;;;5073630;28;20293;-67
2022/10/03 01:59:24;;;;;;;9.93;4.60;;;;;;;;;;5073512;28;20183;-67
2022/10/03 02:01:54;;;;;;;17.05;5.10;;;;;;;;;;5073565;28;20213;-67
2022/10/03 02:04:29;;;;;;;7.60;4.20;;;;;;;;;;5073725;28;20182;-67
2022/10/03 02:07:01;;;;;;;16.70;5.45;;;;;;;;;;5073341;28;20198;-67
2022/10/03 02:09:32;;;;;;;23.93;5.87;;;;;;;;;;5073519;28;20198;-67
2022/10/03 02:12:03;;;;;;;11.50;5.50;;;;;;;;;;5073218;28;20480;-67
2022/10/03 02:14:35;;;;;;;14.40;5.57;;;;;;;;;;5073209;28;20428;-67
2022/10/03 02:17:05;;;;;;;16.83;5.70;;;;;;;;;;5072869;28;20230;-67
2022/10/03 02:19:38;;;;;;;18.23;5.70;;;;;;;;;;5073305;28;20447;-67
2022/10/03 02:22:14;;;;;;;12.15;5.18;;;;;;;;;;5072967;28;20475;-66
2022/10/03 02:24:47;;;;;;;14.10;5.55;;;;;;;;;;5073190;28;20189;-67
2022/10/03 02:27:21;;;;;;;12.00;5.30;;;;;;;;;;5073190;28;20190;-66
2022/10/03 02:29:56;;;;;;;20.20;6.05;;;;;;;;;;5075060;28;20182;-67
2022/10/03 02:32:38;;;;;;;13.48;5.22;;;;;;;;;;5077404;28;20193;-66
2022/10/03 02:35:26;;;;;;;11.40;5.65;;;;;;;;;;5043542;28;20202;-67
2022/10/03 02:38:01;;;;;;;10.18;4.95;;;;;;;;;;5077870;28;20566;-67
2022/10/03 02:40:37;;;;;;;12.88;5.63;;;;;;;;;;5077159;28;20273;-66
2022/10/03 02:43:10;;;;;;;17.20;6.90;;;;;;;;;;5077225;28;20570;-66
2022/10/03 02:45:55;;;;;;;15.88;5.60;;;;;;;;;;5076892;28;20542;-67
2022/10/03 02:48:46;;;;;;;13.98;5.95;;;;;;;;;;5046462;28;20288;-66
2022/10/03 02:51:40;;;;;;;15.13;5.10;;;;;;;;;;5061734;28;20789;-66
2022/10/03 02:54:28;;;;;;;20.08;5.47;;;;;;;;;;5041050;28;20198;-66
2022/10/03 02:57:10;;;;;;;12.40;5.20;;;;;;;;;;5051014;28;20205;-66
2022/10/03 02:59:58;;;;;;;17.02;6.25;;;;;;;;;;5076983;28;20603;-67
2022/10/03 03:02:46;;;;;;;21.75;6.25;;;;;;;;;;5071367;28;20226;-66
2022/10/03 03:05:31;;;;;;;16.43;4.83;;;;;;;;;;5076938;28;20187;-67
2022/10/03 03:08:10;;;;;;;18.33;5.80;;;;;;;;;;5076326;28;20442;-66
2022/10/03 03:10:55;;;;;;;14.80;5.07;;;;;;;;;;5076070;28;20192;-67
2022/10/03 03:13:37;;;;;;;13.07;5.22;;;;;;;;;;5045844;28;20200;-67
2022/10/03 03:16:27;;;;;;;11.63;5.75;;;;;;;;;;5076228;28;20199;-66
2022/10/03 03:19:05;;;;;;;11.93;4.60;;;;;;;;;;5076502;28;20208;-66
2022/10/03 03:21:35;;;;;;;16.77;5.60;;;;;;;;;;5076108;28;20214;-66
2022/10/03 03:24:11;;;;;;;12.48;6.07;;;;;;;;;;5075938;28;20677;-66
2022/10/03 03:26:56;;;;;;;10.98;5.03;;;;;;;;;;5076085;28;20193;-66
2022/10/03 03:29:30;;;;;;;9.60;5.57;;;;;;;;;;5075796;28;20187;-66
2022/10/03 03:32:03;;;;;;;13.55;5.68;;;;;;;;;;5076119;28;20435;-66
2022/10/03 03:34:34;;;;;;;23.45;6.53;;;;;;;;;;5076226;28;20540;-66
2022/10/03 03:37:05;;;;;;;16.45;5.78;;;;;;;;;;5075615;28;20182;-66
2022/10/03 03:39:41;;;;;;;15.40;7.05;;;;;;;;;;5075380;28;20189;-65
2022/10/03 03:42:22;;;;;;;15.52;5.68;;;;;;;;;;5075473;28;20678;-66
2022/10/03 03:44:57;;;;;;;11.68;6.65;;;;;;;;;;5076171;28;20178;-66
2022/10/03 03:47:42;;;;;;;15.73;6.65;;;;;;;;;;5075343;28;20271;-66
2022/10/03 03:50:21;;;;;;;16.67;6.40;;;;;;;;;;5074336;28;20210;-66
2022/10/03 03:52:58;;;;;;;13.35;5.15;;;;;;;;;;5076018;28;20852;-66
2022/10/03 03:55:42;;;;;;;21.63;6.65;;;;;;;;;;5076435;28;20532;-66
2022/10/03 03:58:15;;;;;;;16.17;6.22;;;;;;;;;;5076147;28;20236;-66
2022/10/03 04:00:57;;;;;;;20.23;6.75;;;;;;;;;;5073984;28;20217;-66
2022/10/03 04:03:42;;;;;;;19.30;5.55;;;;;;;;;;5074811;28;20183;-66
2022/10/03 04:06:26;;;;;;;18.10;6.63;;;;;;;;;;5074759;28;20657;-66
2022/10/03 04:09:03;;;;;;;16.45;6.00;;;;;;;;;;5075035;28;20192;-66
2022/10/03 04:11:37;;;;;;;15.48;7.38;;;;;;;;;;5074920;28;20197;-66
2022/10/03 04:14:35;;;;;;;15.52;6.07;;;;;;;;;;5074607;28;20182;-66
2022/10/03 04:20:03;;;;;;;20.08;6.72;;;;;;;;;;5074606;28;20228;-66
2022/10/03 04:22:44;;;;;;;16.35;6.45;;;;;;;;;;5075004;28;20562;-66
2022/10/03 04:25:20;;;;;;;14.20;6.38;;;;;;;;;;5074599;28;20189;-66
2022/10/03 04:28:02;;;;;;;26.95;6.63;;;;;;;;;;5075038;28;20181;-66
2022/10/03 04:30:36;;;;;;;17.50;6.57;;;;;;;;;;5072328;28;20204;-66
2022/10/03 04:33:13;;;;;;;19.08;6.88;;;;;;;;;;5074475;28;20631;-66
2022/10/03 04:35:56;;;;;;;18.83;6.22;;;;;;;;;;5074481;28;20182;-66
2022/10/03 04:38:35;;;;;;;14.93;6.53;;;;;;;;;;5074641;28;20204;-66
2022/10/03 04:41:07;;;;;;;13.85;7.38;;;;;;;;;;5074598;28;20186;-66
2022/10/03 04:43:39;;;;;;;21.10;7.50;;;;;;;;;;5074519;28;20493;-66
2022/10/03 04:46:14;;;;;;;14.45;6.47;;;;;;;;;;5074569;28;20201;-66
2022/10/03 04:48:49;;;;;;;22.45;6.75;;;;;;;;;;5074719;28;20192;-66
2022/10/03 04:51:20;;;;;;;12.75;6.88;;;;;;;;;;5073937;28;20192;-66
2022/10/03 04:53:55;;;;;;;18.23;6.93;;;;;;;;;;5073837;28;20186;-66
2022/10/03 04:56:34;;;;;;;19.80;6.53;;;;;;;;;;5074407;28;20521;-66
2022/10/03 04:59:04;;;;;;;13.60;7.07;;;;;;;;;;5074307;28;20183;-66
2022/10/03 05:01:36;;;;;;;13.95;6.60;;;;;;;;;;5073795;28;20236;-66
2022/10/03 05:04:09;;;;;;;17.58;7.93;;;;;;;;;;5074776;28;20183;-66
2022/10/03 05:06:45;;;;;;;16.20;7.32;;;;;;;;;;5073771;28;20192;-66
2022/10/03 05:09:26;;;;;;;13.77;7.15;;;;;;;;;;5074142;28;20220;-66
2022/10/03 05:12:01;;;;;;;16.80;8.13;;;;;;;;;;5073565;28;20193;-66
2022/10/03 05:14:48;;;;;;;14.15;7.78;;;;;;;;;;5074007;28;20291;-66
2022/10/03 05:17:19;;;;;;;22.55;8.05;;;;;;;;;;5074013;28;20225;-66
2022/10/03 05:19:50;;;;;;;16.20;7.10;;;;;;;;;;5073838;28;20271;-66
2022/10/03 05:22:23;;;;;;;17.70;9.10;;;;;;;;;;5073768;28;20205;-66
2022/10/03 05:24:56;;;;;;;22.58;6.88;;;;;;;;;;5073933;28;20191;-66
2022/10/03 05:27:26;;;;;;;26.63;9.13;;;;;;;;;;5073390;28;20653;-66
2022/10/03 05:30:00;;;;;;;13.50;7.80;;;;;;;;;;5073563;28;20198;-66
2022/10/03 05:32:29;;;;;;;19.67;7.78;;;;;;;;;;5073755;28;20278;-66
2022/10/03 05:35:05;;;;;;;16.67;7.63;;;;;;;;;;5073337;28;20203;-66
2022/10/03 05:37:43;;;;;;;23.83;9.13;;;;;;;;;;5073118;28;20188;-65
2022/10/03 05:40:16;;;;;;;16.95;8.65;;;;;;;;;;5073120;28;20182;-66
2022/10/03 05:42:58;;;;;;;21.75;8.57;;;;;;;;;;5073052;28;20209;-67
2022/10/03 05:45:29;;;;;;;16.10;8.23;;;;;;;;;;5071333;28;20646;-67
2022/10/03 05:48:02;;;;;;;13.35;7.65;;;;;;;;;;5073092;28;20205;-67
2022/10/03 05:50:41;;;;;;;22.73;9.23;;;;;;;;;;5073093;28;20189;-67
2022/10/03 05:53:15;;;;;;;15.82;8.00;;;;;;;;;;5073082;28;20186;-67
2022/10/03 05:55:54;;;;;;;22.92;8.70;;;;;;;;;;5073082;28;20190;-67
2022/10/03 05:58:33;;;;;;;18.90;8.40;;;;;;;;;;5072885;28;20276;-67
2022/10/03 06:01:10;;;;;;;17.15;7.85;;;;;;;;;;5073148;28;20196;-67
2022/10/03 06:03:50;;;;;;;26.13;9.10;;;;;;;;;;5072945;28;20209;-67
2022/10/03 06:06:21;;;;;;;19.33;8.98;;;;;;;;;;5073484;28;20560;-67
2022/10/03 06:08:52;;;;;;;21.52;9.68;;;;;;;;;;5073298;28;20657;-67
2022/10/03 06:11:39;;;;;;;21.83;10.27;;;;;;;;;;5073217;28;20187;-67
2022/10/03 06:14:23;;;;;;;22.67;9.45;;;;;;;;;;5072955;28;20193;-67
2022/10/03 06:16:57;;;;;;;21.95;9.25;;;;;;;;;;5072846;28;20217;-66
2022/10/03 06:19:34;;;;;;;19.90;8.70;;;;;;;;;;5072769;28;20190;-67
2022/10/03 06:22:16;;;;;;;20.92;8.77;;;;;;;;;;5072639;28;20217;-67
2022/10/03 06:25:17;;;;;;;17.48;9.50;;;;;;;;;;5072733;28;20182;-67
2022/10/03 06:28:01;;;;;;;13.23;9.05;;;;;;;;;;5073193;28;20546;-67
2022/10/03 06:30:35;;;;;;;17.33;10.85;;;;;;;;;;5073025;28;20304;-67
2022/10/03 06:33:12;;;;;;;17.45;9.05;;;;;;;;;;5072621;28;20195;-67
2022/10/03 06:35:57;;;;;;;15.88;9.80;;;;;;;;;;5073303;28;20188;-67
2022/10/03 06:38:51;;;;;;;19.48;10.18;;;;;;;;;;5072970;28;20535;-67
2022/10/03 06:41:47;;;;;;;16.13;9.73;;;;;;;;;;5036771;28;20213;-67
2022/10/03 06:44:22;;;;;;;19.65;10.75;;;;;;;;;;5073211;28;20189;-67
2022/10/03 06:47:01;;;;;;;19.55;10.75;;;;;;;;;;5072821;28;20196;-66
2022/10/03 06:49:32;;;;;;;26.27;11.05;;;;;;;;;;5072745;28;20182;-67
2022/10/03 06:52:21;;;;;;;26.30;13.77;;;;;;;;;;5073075;28;20192;-67
2022/10/03 06:55:04;;;;;;;17.55;13.20;;;;;;;;;;5072423;28;20187;-67
2022/10/03 06:57:46;;;;;;;20.10;13.75;;;;;;;;;;5072445;28;20659;-67
2022/10/03 07:00:16;;;;;;;20.80;14.43;;;;;;;;;;5070162;28;20540;-67
2022/10/03 07:02:57;;;;;;;21.05;13.63;;;;;;;;;;5072634;28;20562;-67
2022/10/03 07:05:38;;;;;;;22.67;14.48;;;;;;;;;;5072576;28;20232;-66
2022/10/03 07:08:23;;;;;;;24.52;14.02;;;;;;;;;;5072756;28;20190;-67
2022/10/03 07:11:00;;;;;;;22.83;14.80;;;;;;;;;;5072896;28;20212;-66
2022/10/03 07:13:47;;;;;;;26.23;14.18;;;;;;;;;;5072473;28;20186;-67
2022/10/03 07:16:25;;;;;;;19.20;13.10;;;;;;;;;;5074499;28;20194;-66
2022/10/03 07:19:07;;;;;;;28.17;13.48;;;;;;;;;;5076099;28;20273;-67
2022/10/03 07:21:56;;;;;;;22.73;13.68;;;;;;;;;;5075691;28;20182;-67
2022/10/03 07:24:45;;;;;;;27.75;13.88;;;;;;;;;;5076325;28;20182;-67
2022/10/03 07:27:18;;;;;;;23.45;14.77;;;;;;;;;;5076184;28;20194;-66
2022/10/03 07:29:57;;;;;;;19.03;13.00;;;;;;;;;;5075590;28;20644;-67
2022/10/03 07:32:35;;;;;;;17.88;11.80;;;;;;;;;;5075693;28;20437;-67
2022/10/03 07:35:14;;;;;;;21.03;11.63;;;;;;;;;;5076014;28;20185;-66
2022/10/03 07:40:48;;;;;;;30.73;13.10;;;;;;;;;;5075308;28;20177;-67
2022/10/03 07:43:27;;;;;;;22.15;12.40;;;;;;;;;;5075712;28;20210;-68
2022/10/03 07:46:10;;;;;;;16.30;11.80;;;;;;;;;;5075611;28;20187;-66
2022/10/03 07:48:59;;;;;;;17.53;10.80;;;;;;;;;;5076006;28;20433;-67
2022/10/03 07:51:30;;;;;;;13.47;10.03;;;;;;;;;;5075647;28;20435;-67
2022/10/03 07:54:23;;;;;;;17.13;11.13;;;;;;;;;;5075634;28;20778;-68
2022/10/03 07:57:00;;;;;;;14.93;9.57;;;;;;;;;;5075770;28;20190;-68
2022/10/03 07:59:40;;;;;;;19.43;11.50;;;;;;;;;;5075144;28;20836;-67
2022/10/03 08:02:16;;;;;;;15.33;10.37;;;;;;;;;;5074859;28;20441;-66
2022/10/03 08:04:52;;;;;;;17.53;9.70;;;;;;;;;;5075859;28;20778;-66
2022/10/03 08:07:29;;;;;;;16.80;10.47;;;;;;;;;;5075444;28;20439;-67
2022/10/03 08:10:09;;;;;;;22.17;10.30;;;;;;;;;;5075460;28;20425;-69
2022/10/03 08:12:50;;;;;;;19.90;11.13;;;;;;;;;;5074858;28;20856;-67
2022/10/03 08:15:25;;;;;;;15.53;10.37;;;;;;;;;;5075212;28;20432;-66
2022/10/03 08:18:06;;;;;;;14.37;9.77;;;;;;;;;;5074897;28;20484;-66
2022/10/03 08:20:48;;;;;;;15.43;11.20;;;;;;;;;;5074722;28;20474;-67
2022/10/03 08:23:23;;;;;;;17.07;9.10;;;;;;;;;;5072754;28;20481;-67
2022/10/03 08:25:55;;;;;;;15.67;9.50;;;;;;;;;;5075202;28;20776;-66
2022/10/03 08:28:34;;;;;;;19.33;9.23;;;;;;;;;;5075468;28;20433;-67
2022/10/03 08:31:16;;;;;;;17.80;10.40;;;;;;;;;;5072731;28;20440;-68
2022/10/03 08:33:57;;;;;;;12.77;8.47;;;;;;;;;;5072690;28;20483;-67
2022/10/03 08:36:44;;;;;;;16.00;8.37;;;;;;;;;;5074283;28;20515;-67
2022/10/03 08:39:12;;;;;;;16.97;9.40;;;;;;;;;;5074558;28;20482;-67
2022/10/03 08:41:59;;;;;;;14.63;8.53;;;;;;;;;;5074100;28;20973;-67
2022/10/03 08:44:41;;;;;;;13.20;8.50;;;;;;;;;;5074605;28;20475;-67
2022/10/03 08:47:24;;;;;;;17.30;8.07;;;;;;;;;;5073650;28;20455;-66
2022/10/03 08:50:09;;;;;;;15.93;8.63;;;;;;;;;;5061626;28;20532;-67
2022/10/03 08:52:47;;;;;;;11.13;8.07;;;;;;;;;;5074385;28;20445;-67
2022/10/03 08:55:41;;;;;;;16.47;9.70;;;;;;;;;;5074175;28;20423;-67
2022/10/03 08:58:18;;;;;;;17.10;9.30;;;;;;;;;;5039220;28;20444;-66
2022/10/03 09:01:01;;;;;;;19.87;8.60;;;;;;;;;;5074218;28;20428;-67
2022/10/03 09:03:57;;;;;;;16.10;7.47;;;;;;;;;;5074342;28;20472;-67
2022/10/03 09:06:42;;;;;;;15.70;7.60;;;;;;;;;;5074239;28;20429;-66
2022/10/03 09:09:27;;;;;;;14.87;7.87;;;;;;;;;;5074609;28;20829;-67
2022/10/03 09:12:06;;;;;;;21.03;8.40;;;;;;;;;;5074180;28;20490;-67
2022/10/03 09:14:50;;;;;;;12.70;8.10;;;;;;;;;;5074483;28;20443;-67
2022/10/03 09:17:28;;;;;;;9.00;6.03;;;;;;;;;;5074314;28;20992;-67
2022/10/03 09:20:11;;;;;;;10.80;6.53;;;;;;;;;;5074273;28;20798;-68
2022/10/03 09:22:58;;;;;;;14.67;5.60;;;;;;;;;;5073838;28;20472;-67
2022/10/03 09:25:33;;;;;;;11.60;6.40;;;;;;;;;;5073860;28;20813;-67
2022/10/03 09:28:19;;;;;;;9.27;5.90;;;;;;;;;;5073863;28;20468;-67
2022/10/03 09:31:04;;;;;;;14.67;7.00;;;;;;;;;;5073610;28;20487;-67
2022/10/03 09:33:44;;;;;;;16.27;6.43;;;;;;;;;;5074237;28;20448;-67
2022/10/03 09:36:23;;;;;;;14.63;6.23;;;;;;;;;;5073976;28;20447;-67
2022/10/03 09:38:58;;;;;;;14.87;5.77;;;;;;;;;;5073477;28;20437;-68
2022/10/03 09:41:43;;;;;;;14.27;6.57;;;;;;;;;;5073713;28;20429;-67
2022/10/03 09:44:31;;;;;;;15.73;6.47;;;;;;;;;;5073133;28;21022;-67
2022/10/03 09:47:22;;;;;;;7.40;6.10;;;;;;;;;;5073047;28;20452;-68
2022/10/03 09:50:09;;;;;;;13.60;4.50;;;;;;;;;;5073961;28;20435;-67
2022/10/03 09:52:47;;;;;;;8.80;3.33;;;;;;;;;;5073207;28;20848;-67
2022/10/03 09:55:28;;;;;;;10.40;4.20;;;;;;;;;;5073816;28;20437;-67
2022/10/03 09:58:12;;;;;;;10.83;4.10;;;;;;;;;;5073121;28;20422;-67
2022/10/03 10:00:53;;;;;;;10.90;4.33;;;;;;;;;;5073471;28;20431;-66
2022/10/03 10:03:32;;;;;;;13.80;3.47;;;;;;;;;;5073144;28;20464;-66
2022/10/03 10:06:11;;;;;;;6.37;3.60;;;;;;;;;;5073388;28;20523;-66
2022/10/03 10:08:47;;;;;;;10.53;3.37;;;;;;;;;;5073047;28;20892;-66
2022/10/03 10:11:30;;;;;;;8.43;3.00;;;;;;;;;;5073223;28;20438;-67
2022/10/03 10:14:18;;;;;;;7.37;3.30;;;;;;;;;;5073273;28;20440;-66
2022/10/03 10:16:57;;;;;;;6.20;2.70;;;;;;;;;;5073188;28;20466;-67
2022/10/03 10:19:50;;;;;;;8.83;2.80;;;;;;;;;;5073386;28;20442;-66
2022/10/03 10:25:28;;;;;;;7.77;2.10;;;;;;;;;;5090977;27;20525;-66
2022/10/03 10:28:02;;;;;;;7.10;2.67;;;;;;;;;;5090956;28;20439;-66
2022/10/03 10:30:45;;;;;;;7.30;2.00;;;;;;;;;;5090471;28;20436;-66
2022/10/03 10:33:26;;;;;;;14.90;5.23;;;;;;;;;;5090773;28;20438;-66
2022/10/03 10:36:23;;;;;;;8.57;2.27;;;;;;;;;;5090907;28;20427;-66
2022/10/03 10:39:07;;;;;;;7.37;2.20;;;;;;;;;;5090320;28;20434;-66
2022/10/03 10:41:42;;;;;;;5.00;2.53;;;;;;;;;;5090880;28;20436;-67
2022/10/03 10:44:33;;;;;;;9.00;2.60;;;;;;;;;;5090946;28;20468;-66
2022/10/03 10:47:16;;;;;;;12.93;2.53;;;;;;;;;;5088518;28;20438;-67
2022/10/03 10:49:57;;;;;;;9.50;2.17;;;;;;;;;;5089900;28;20433;-66
2022/10/03 10:52:48;;;;;;;5.00;2.00;;;;;;;;;;5089787;28;20439;-66
2022/10/03 10:55:32;;;;;;;9.13;2.30;;;;;;;;;;5089732;28;20933;-66
2022/10/03 10:58:18;;;;;;;4.13;2.40;;;;;;;;;;5090049;28;20436;-66
2022/10/03 11:00:55;;;;;;;4.87;2.30;;;;;;;;;;5089970;28;20432;-67
2022/10/03 11:03:46;;;;;;;12.57;2.50;;;;;;;;;;5090119;28;20509;-66
2022/10/03 11:06:35;;;;;;;3.47;1.93;;;;;;;;;;5079410;28;20455;-66
2022/10/03 11:09:19;;;;;;;10.27;2.47;;;;;;;;;;5090041;28;20540;-66
2022/10/03 11:12:05;;;;;;;6.30;2.07;;;;;;;;;;5090115;28;20439;-66
2022/10/03 11:15:00;;;;;;;5.50;1.80;;;;;;;;;;5089701;28;20434;-68
2022/10/03 11:18:01;;;;;;;6.73;1.70;;;;;;;;;;5089769;28;20830;-66
2022/10/03 11:20:46;;;;;;;5.37;1.80;;;;;;;;;;5027341;28;20882;-66
2022/10/03 11:23:43;;;;;;;5.93;1.97;;;;;;;;;;5026810;28;20485;-66
2022/10/03 11:26:38;;;;;;;8.10;2.23;;;;;;;;;;5075788;28;20796;-66
2022/10/03 11:29:40;;;;;;;7.27;2.80;;;;;;;;;;5053799;28;20481;-66
2022/10/03 11:32:40;;;;;;;6.80;2.00;;;;;;;;;;5089155;28;20478;-66
2022/10/03 11:35:38;;;;;;;4.33;1.80;;;;;;;;;;5021599;28;20468;-66
2022/10/03 11:38:08;;;;;;;4.20;1.60;;;;;;;;;;5014282;28;20433;-66
2022/10/03 11:40:41;;;;;;;6.97;2.30;;;;;;;;;;5056183;28;20447;-66
2022/10/03 11:43:29;;;;;;;5.90;2.57;;;;;;;;;;5075468;28;20430;-65
2022/10/03 11:46:06;;;;;;;2.87;1.57;;;;;;;;;;5071304;28;20532;-66
2022/10/03 11:48:39;;;;;;;5.63;1.83;;;;;;;;;;5076140;28;20447;-66
2022/10/03 11:51:09;;;;;;;3.63;1.70;;;;;;;;;;5076080;28;20450;-66
2022/10/03 11:53:42;;;;;;;5.67;1.57;;;;;;;;;;5075635;28;20453;-66
2022/10/03 11:56:42;;;;;;;7.00;2.67;;;;;;;;;;5076163;28;20778;-66
2022/10/03 11:59:27;;;;;;;9.83;2.20;;;;;;;;;;5013511;28;20426;-66
2022/10/03 12:02:02;;;;;;;8.00;2.63;;;;;;;;;;5013497;28;20539;-66
2022/10/03 12:04:35;;;;;;;2.50;1.60;;;;;;;;;;5051513;28;20478;-66
2022/10/03 12:10:01;;;;;;;10.80;2.27;;;;;;;;;;5075197;28;20460;-66
2022/10/03 12:12:32;;;;;;;5.43;1.83;;;;;;;;;;5075113;28;20431;-66
2022/10/03 12:15:04;;;;;;;6.23;1.93;;;;;;;;;;5075499;28;20450;-66
2022/10/03 12:17:34;;;;;;;7.40;1.80;;;;;;;;;;5075345;28;20444;-66
2022/10/03 12:20:05;;;;;;;4.50;2.53;;;;;;;;;;5075074;28;20448;-65
2022/10/03 12:22:42;;;;;;;3.63;2.27;;;;;;;;;;5075149;28;20517;-66
2022/10/03 12:25:17;;;;;;;4.50;1.67;;;;;;;;;;5074645;28;20460;-66
2022/10/03 12:27:49;;;;;;;11.27;2.20;;;;;;;;;;5075171;28;20438;-66
2022/10/03 12:30:20;;;;;;;7.13;2.20;;;;;;;;;;5074818;28;20430;-66
2022/10/03 12:32:54;;;;;;;6.43;1.90;;;;;;;;;;5074581;28;20434;-66
2022/10/03 12:35:31;;;;;;;5.63;1.67;;;;;;;;;;5074560;28;20441;-66
2022/10/03 12:38:03;;;;;;;4.27;2.00;;;;;;;;;;5074897;28;20485;-67
2022/10/03 12:40:32;;;;;;;2.90;1.53;;;;;;;;;;5074487;28;20436;-66
2022/10/03 12:43:04;;;;;;;8.40;2.50;;;;;;;;;;5074333;28;20454;-66
2022/10/03 12:45:35;;;;;;;5.93;1.80;;;;;;;;;;5075375;28;20466;-66
2022/10/03 12:48:15;;;;;;;6.93;1.80;;;;;;;;;;5072292;28;20524;-67
2022/10/03 12:50:46;;;;;;;7.70;2.10;;;;;;;;;;5074150;28;20454;-66
2022/10/03 12:53:22;;;;;;;9.03;1.90;;;;;;;;;;5074192;28;20457;-67
2022/10/03 12:55:57;;;;;;;3.57;1.60;;;;;;;;;;5073983;28;20461;-66
2022/10/03 12:58:28;;;;;;;4.30;1.53;;;;;;;;;;5074469;28;20430;-67
2022/10/03 13:00:59;;;;;;;5.10;1.70;;;;;;;;;;5073985;28;20522;-66
2022/10/03 13:03:32;;;;;;;3.33;1.50;;;;;;;;;;5074143;28;20433;-66
2022/10/03 13:06:20;;;;;;;8.07;2.17;;;;;;;;;;5073870;28;20436;-66
2022/10/03 13:09:06;;;;;;;5.30;3.63;;;;;;;;;;5073741;28;20439;-66
2022/10/03 13:11:36;;;;;;;8.17;2.00;;;;;;;;;;5073516;28;20440;-67
2022/10/03 13:14:14;;;;;;;3.00;1.53;;;;;;;;;;5074294;28;20438;-67
2022/10/03 13:16:46;;;;;;;7.17;1.50;;;;;;;;;;5074179;28;20431;-66
2022/10/03 13:19:17;;;;;;;4.70;1.80;;;;;;;;;;5073407;28;20966;-66
2022/10/03 13:21:54;;;;;;;3.93;1.67;;;;;;;;;;5073504;28;20903;-66
2022/10/03 13:24:31;;;;;;;3.77;1.80;;;;;;;;;;5073702;28;20584;-66
2022/10/03 13:27:03;;;;;;;5.53;2.67;;;;;;;;;;5074086;28;20975;-66
2022/10/03 13:29:37;;;;;;;4.27;1.70;;;;;;;;;;5072930;28;20905;-67
2022/10/03 13:32:10;;;;;;;3.73;2.07;;;;;;;;;;5073406;28;20458;-66
2022/10/03 13:34:42;;;;;;;4.93;1.60;;;;;;;;;;5073350;28;20435;-66
2022/10/03 13:37:13;;;;;;;7.20;2.40;;;;;;;;;;5073287;28;20438;-66
2022/10/03 13:39:44;;;;;;;5.73;2.17;;;;;;;;;;5073331;28;20442;-66
2022/10/03 13:42:15;;;;;;;7.40;2.10;;;;;;;;;;5073460;28;20439;-67
2022/10/03 13:44:44;;;;;;;5.90;1.70;;;;;;;;;;5072911;28;20472;-66
2022/10/03 13:47:25;;;;;;;3.13;1.87;;;;;;;;;;5073492;28;20793;-67
2022/10/03 13:49:57;;;;;;;5.67;2.10;;;;;;;;;;5073040;28;20711;-67
2022/10/03 13:52:29;;;;;;;10.00;2.10;;;;;;;;;;5073251;28;20800;-66
2022/10/03 13:55:18;;;;;;;3.73;1.60;;;;;;;;;;5073513;28;20471;-66
2022/10/03 13:57:47;;;;;;;6.07;1.70;;;;;;;;;;5072469;28;20491;-66
2022/10/03 14:00:16;;;;;;;4.93;2.60;;;;;;;;;;5073033;28;20443;-66
2022/10/03 14:02:48;;;;;;;8.70;2.33;;;;;;;;;;5072780;28;20442;-66
2022/10/03 14:05:33;;;;;;;6.40;2.17;;;;;;;;;;5072594;28;20512;-66
2022/10/03 14:08:07;;;;;;;3.27;1.50;;;;;;;;;;5062815;28;20460;-67
2022/10/03 14:10:55;;;;;;;4.87;2.00;;;;;;;;;;5073117;28;20435;-67
2022/10/03 14:13:25;;;;;;;5.37;1.90;;;;;;;;;;5072693;28;20431;-67
2022/10/03 14:15:54;;;;;;;3.97;1.90;;;;;;;;;;5072474;28;20963;-67
2022/10/03 14:18:46;;;;;;;3.93;1.70;;;;;;;;;;5072425;28;20514;-67
2022/10/03 14:21:23;;;;;;;5.70;1.90;;;;;;;;;;5072451;28;20441;-67
2022/10/03 14:23:58;;;;;;;4.20;1.83;;;;;;;;;;5072506;28;20983;-66
2022/10/03 14:26:28;;;;;;;4.00;2.03;;;;;;;;;;5072615;28;20930;-67
2022/10/03 14:29:04;;;;;;;4.57;1.70;;;;;;;;;;5073068;28;20508;-66
2022/10/03 14:31:36;;;;;;;9.23;2.30;;;;;;;;;;5073011;28;20428;-66
2022/10/03 14:34:06;;;;;;;5.93;2.40;;;;;;;;;;5072614;28;20455;-67
2022/10/03 14:36:37;;;;;;;3.87;1.53;;;;;;;;;;5072941;28;20433;-66
2022/10/03 14:39:15;;;;;;;8.10;3.60;;;;;;;;;;5072812;28;20446;-66
2022/10/03 14:41:46;;;;;;;8.50;4.27;;;;;;;;;;5072766;28;20439;-66
2022/10/03 14:44:16;;;;;;;3.33;1.73;;;;;;;;;;5073222;28;20485;-66
2022/10/03 14:46:47;;;;;;;3.17;1.73;;;;;;;;;;5072604;28;20439;-67
2022/10/03 14:49:18;;;;;;;10.83;2.43;;;;;;;;;;5072839;28;20469;-67
2022/10/03 14:51:48;;;;;;;5.10;1.83;;;;;;;;;;5072822;28;20517;-67
2022/10/03 14:54:20;;;;;;;4.10;1.80;;;;;;;;;;5072254;28;20466;-67
2022/10/03 14:56:50;;;;;;;6.90;1.43;;;;;;;;;;5072486;28;20442;-67
2022/10/03 14:59:19;;;;;;;4.60;1.80;;;;;;;;;;5072625;28;20447;-67
2022/10/03 15:01:51;;;;;;;4.23;1.63;;;;;;;;;;5070779;28;20508;-66
2022/10/03 15:04:24;;;;;;;6.47;1.70;;;;;;;;;;5072367;28;20450;-66
2022/10/03 15:06:55;;;;;;;2.87;1.57;;;;;;;;;;5072434;28;20441;-67
2022/10/03 15:09:26;;;;;;;7.73;1.90;;;;;;;;;;5072576;28;20462;-66
2022/10/03 15:11:58;;;;;;;4.00;2.27;;;;;;;;;;5075850;28;20771;-67
2022/10/03 15:14:26;;;;;;;3.40;2.13;;;;;;;;;;5076609;28;20447;-66
2022/10/03 15:16:54;;;;;;;5.50;1.87;;;;;;;;;;5075905;28;20482;-67
2022/10/03 15:19:27;;;;;;;11.90;2.57;;;;;;;;;;5076165;28;20831;-66
2022/10/03 15:21:55;;;;;;;4.50;2.63;;;;;;;;;;5075606;28;20476;-66
2022/10/03 15:24:23;;;;;;;10.80;2.00;;;;;;;;;;5075925;28;20835;-66
2022/10/03 15:26:55;;;;;;;3.37;1.77;;;;;;;;;;5075969;28;20946;-66
2022/10/03 15:29:24;;;;;;;4.13;1.97;;;;;;;;;;5076026;28;20438;-66
2022/10/03 15:31:51;;;;;;;4.50;2.00;;;;;;;;;;5075776;28;20447;-67
2022/10/03 15:34:20;;;;;;;6.83;2.00;;;;;;;;;;5076407;28;20444;-67
2022/10/03 15:36:49;;;;;;;4.90;2.50;;;;;;;;;;5075553;28;20453;-66
2022/10/03 15:39:20;;;;;;;3.83;1.70;;;;;;;;;;5075615;28;20447;-66
2022/10/03 15:41:54;;;;;;;3.47;2.00;;;;;;;;;;5075778;28;20437;-66
2022/10/03 15:44:27;;;;;;;4.70;2.10;;;;;;;;;;5075550;28;20433;-65
2022/10/03 15:46:57;;;;;;;2.87;1.93;;;;;;;;;;5074233;28;20432;-66
2022/10/03 15:49:26;;;;;;;1.80;1.50;;;;;;;;;;5075280;28;20452;-66
2022/10/03 15:51:55;;;;;;;6.00;2.47;;;;;;;;;;5075466;28;20456;-66